Aurora, South Dakota
Current Conditions -  °F | °C
As of 3:15 PM on Friday 24 Oct 2014 (Local Time) from KMDS Reporting Station
Clear Clear  
Wind Chill: 75°   Ceiling: Unl
Heat Index: 75°   Visibility: 10mi
Dew Point: 36°   Wind: 16mph
Humidity: 24%   Direction: 310°NW
Pressure: 29.89"   Gusts: NA
Location:  44.28°N, 96.69°W
Report Text: KMDS 242015Z AUTO 31014KT 10SM CLR 24/02 A2989 RMK AO2
Loading
Personal Weather Stations






























Interactive Weather Map
Tropical Storm Tracking
New forecast layout! Learn more

10-Day Weather Forecast

Advertisements
Track Severe Weather on mobile